Charter Quote
Worldwide +1-877-727-2538 Call
Select Language Lang
SAFETY RELIABILITY EXPERIENCE

Private Jet Charter Services - Quzhou Airport (ZSJU)

Paramount Business Jets offers private jet charter flights and luxury airliner charters to and from Quzhou Airport.

AIRPORT INFORMATION
ICAOZSJU
LOCATIONQuzhou, China
FACILITY TYPEAIRPORT

At Paramount Business Jets you can hire chartered private jets to and from Quzhou Airport with as little as 4 hours of notice. All flights booked via Paramount Business Jets are operated by certified direct air carriers that meet and exceed the FAA part 135 and 121 protocol or a foreign equivalent safety authority. Furthermore, Paramount Business Jets subscribes to ARGUS for their third party safety checks of operators, aircraft, and crews prior each and every flight to and from Quzhou Airport and worldwide.

  • Quote a trip using Quzhou Airport or call us 24/7 - 365 days a year at +1-877-727-2538.
Questions? Call +1-877-727-2538

METAR Weather Data at Quzhou Airport, ZSJU

STATIONZSJU
OBSERVEDMon May 20, 09:00 UTC
NOWMon Oct 21, 19:50 UTC
AGE56290:50 hr ago
WINDSW at 7 mph
VISIBILITY10 miles
CLOUDSmostly cloudy
TEMP77°F (25°C)
DEWPT68°F (20°C)
HUMIDITY74%
BAROMETER1004 hPa (29.65 in Hg)
METARZSJU 200900Z 22003MPS 6000 BKN060 25/20 Q1004 NOSIG

Call us on +1-877-727-2538 (24 Hours) to Hire a Private Jet or Get a Quick Quote.

Find Airports Near any Location

Processing
...